Time;durP1;ratioP1;P1;durP2;ratioP2;P2;SDS_P1;SDS_P2;PMS_P1;PMS_P2;Temp;Humidity;BMP_temperature;BMP_pressure;BME280_temperature;BME280_humidity;BME280_pressure;Samples;Min_cycle;Max_cycle;Signal;HPM_P1;HPM_P2
2022/02/22 00:01:41;;;;;;;;;12.00;4.75;;;;;12.32;55.25;101949.69;5079537;28;45330;-65
2022/02/22 00:04:07;;;;;;;;;10.75;6.00;;;;;12.31;55.20;101951.50;5081566;27;45688;-65
2022/02/22 00:06:33;;;;;;;;;9.75;6.25;;;;;12.24;55.41;101939.13;5069058;27;45518;-64
2022/02/22 00:08:58;;;;;;;;;4.25;4.25;;;;;12.22;55.08;101932.94;5077075;28;45405;-64
2022/02/22 00:11:24;;;;;;;;;7.25;4.25;;;;;12.25;55.43;101943.56;5074669;27;45547;-65
2022/02/22 00:13:50;;;;;;;;;19.75;5.25;;;;;12.21;55.19;101950.78;5066373;27;45326;-65
2022/02/22 00:16:15;;;;;;;;;9.25;4.50;;;;;12.21;54.97;101953.47;5074282;27;46054;-65
2022/02/22 00:18:41;;;;;;;;;9.25;5.00;;;;;12.27;55.32;101963.16;5063155;28;45194;-64
2022/02/22 00:21:06;;;;;;;;;7.00;6.50;;;;;12.16;55.41;101941.97;5064975;28;45240;-64
2022/02/22 00:23:31;;;;;;;;;6.25;5.00;;;;;12.08;55.41;101921.59;5063458;28;45365;-64
2022/02/22 00:25:57;;;;;;;;;11.25;7.00;;;;;12.15;55.50;101944.69;5068474;27;46344;-64
2022/02/22 00:28:22;;;;;;;;;7.25;5.25;;;;;12.14;55.40;101954.47;5077926;28;45375;-65
2022/02/22 00:30:48;;;;;;;;;7.00;4.25;;;;;12.20;55.49;101961.53;5074965;28;45156;-65
2022/02/22 00:33:15;;;;;;;;;10.00;6.00;;;;;12.14;55.62;101962.50;5076023;27;45522;-65
2022/02/22 00:35:40;;;;;;;;;6.75;4.00;;;;;12.17;55.56;101981.19;5074767;27;46325;-64
2022/02/22 00:38:06;;;;;;;;;8.50;5.00;;;;;12.15;55.43;101964.28;5064919;28;45443;-65
2022/02/22 00:40:31;;;;;;;;;8.00;4.00;;;;;12.17;55.52;101973.16;5077560;27;45312;-65
2022/02/22 00:42:56;;;;;;;;;10.00;6.50;;;;;12.09;55.63;101959.03;5077304;27;45540;-65
2022/02/22 00:45:22;;;;;;;;;14.50;7.75;;;;;12.12;55.95;101966.16;5079460;27;46453;-64
2022/02/22 00:47:47;;;;;;;;;8.50;5.00;;;;;12.09;55.66;101969.75;5078852;27;45333;-64
2022/02/22 00:50:13;;;;;;;;;10.50;6.00;;;;;12.11;55.71;101973.31;5077665;27;45330;-65
2022/02/22 00:52:38;;;;;;;;;8.50;6.00;;;;;12.09;55.88;101969.75;5074952;27;45599;-65
2022/02/22 00:55:04;;;;;;;;;7.50;6.75;;;;;12.08;55.64;101973.34;5077696;28;45960;-64
2022/02/22 00:57:30;;;;;;;;;9.50;5.00;;;;;12.07;55.76;101973.38;5072965;27;45234;-64
2022/02/22 00:59:55;;;;;;;;;9.25;6.25;;;;;12.01;55.92;101969.91;5080658;27;45347;-64
2022/02/22 01:02:20;;;;;;;;;8.50;6.50;;;;;12.01;56.01;101975.28;5074653;28;45299;-65
2022/02/22 01:04:46;;;;;;;;;12.75;5.75;;;;;11.95;56.11;101970.03;5076437;27;45252;-64
2022/02/22 01:07:16;;;;;;;;;11.75;5.50;;;;;11.96;55.91;101968.22;5080331;27;45210;-64
2022/02/22 01:09:43;;;;;;;;;6.50;5.25;;;;;11.97;55.76;101968.19;5060508;28;45303;-64
2022/02/22 01:12:09;;;;;;;;;8.50;4.75;;;;;11.97;56.22;101978.03;5060653;28;45454;-65
2022/02/22 01:14:35;;;;;;;;;7.25;3.00;;;;;11.87;56.04;101969.25;5075914;28;46554;-64
2022/02/22 01:17:00;;;;;;;;;9.50;6.00;;;;;11.96;56.17;101982.50;5077849;27;45382;-64
2022/02/22 01:19:25;;;;;;;;;11.25;5.75;;;;;11.96;56.07;101989.63;5060670;28;45193;-65
2022/02/22 01:21:51;;;;;;;;;7.50;6.00;;;;;11.93;56.43;101990.56;5061979;28;45544;-65
2022/02/22 01:24:16;;;;;;;;;9.00;5.75;;;;;11.95;56.20;101994.09;5073479;27;45660;-65
2022/02/22 01:26:41;;;;;;;;;7.75;4.50;;;;;11.93;56.19;102000.38;5071728;27;45371;-65
2022/02/22 01:29:07;;;;;;;;;11.50;7.75;;;;;11.86;56.02;102002.25;5084360;27;45306;-64
2022/02/22 01:31:32;;;;;;;;;11.25;6.00;;;;;11.83;56.24;101983.59;5081571;27;45631;-65
2022/02/22 01:33:57;;;;;;;;;12.75;5.50;;;;;11.84;56.43;101994.28;5077079;27;45183;-65
2022/02/22 01:36:25;;;;;;;;;7.75;4.75;;;;;11.84;56.42;101999.63;5071052;27;45357;-64
2022/02/22 01:38:54;;;;;;;;;6.50;4.25;;;;;11.80;56.21;101991.66;5060218;28;45411;-65
2022/02/22 01:41:21;;;;;;;;;7.75;5.00;;;;;11.80;56.39;101999.69;5060314;28;45287;-64
2022/02/22 01:43:46;;;;;;;;;8.25;5.00;;;;;11.76;56.70;101981.91;5073009;28;45317;-65
2022/02/22 01:46:12;;;;;;;;;12.50;6.50;;;;;11.78;56.54;101989.03;5076022;27;45564;-65
2022/02/22 01:48:38;;;;;;;;;15.00;12.75;;;;;11.77;56.40;101989.03;5066671;27;45303;-65
2022/02/22 01:51:03;;;;;;;;;15.00;8.50;;;;;11.71;56.58;101978.44;5065695;28;45401;-64
2022/02/22 01:53:29;;;;;;;;;5.25;4.50;;;;;11.79;56.56;101996.13;5068374;28;47394;-64
2022/02/22 01:55:54;;;;;;;;;10.75;9.00;;;;;11.80;56.37;102000.56;5065921;27;45559;-64
2022/02/22 01:58:19;;;;;;;;;15.75;10.00;;;;;11.80;56.20;101997.03;5078860;27;45875;-65
2022/02/22 02:00:46;;;;;;;;;6.00;6.00;;;;;11.74;56.60;101987.28;5079765;27;45410;-64
2022/02/22 02:03:18;;;;;;;;;9.50;4.25;;;;;11.73;56.64;101984.63;5078747;28;45586;-64
2022/02/22 02:05:44;;;;;;;;;13.50;5.00;;;;;11.74;56.59;102007.81;5088716;27;45499;-64
2022/02/22 02:08:11;;;;;;;;;8.25;7.00;;;;;11.70;56.38;101993.63;5067229;27;45341;-65
2022/02/22 02:10:36;;;;;;;;;11.00;4.75;;;;;11.69;56.42;101997.19;5059959;28;45373;-64
2022/02/22 02:13:02;;;;;;;;;10.75;7.00;;;;;11.63;56.87;101992.84;5070133;28;47819;-64
2022/02/22 02:15:28;;;;;;;;;7.50;6.00;;;;;11.61;56.55;101988.41;5085569;27;45456;-65
2022/02/22 02:17:53;;;;;;;;;9.75;5.75;;;;;11.60;56.55;102006.25;5076820;27;45398;-65
2022/02/22 02:20:18;;;;;;;;;8.50;4.00;;;;;11.59;56.51;101998.25;5080083;27;45317;-65
2022/02/22 02:22:44;;;;;;;;;8.25;6.00;;;;;11.62;56.52;102004.44;5069211;27;46277;-64
2022/02/22 02:25:11;;;;;;;;;6.50;6.00;;;;;11.60;56.39;102005.38;5079059;27;45334;-65
2022/02/22 02:27:37;;;;;;;;;9.50;4.75;;;;;11.62;56.37;102012.47;5079719;27;45152;-64
2022/02/22 02:30:04;;;;;;;;;13.25;8.50;;;;;11.61;56.61;102023.19;5074585;27;45642;-65
2022/02/22 02:32:30;;;;;;;;;11.50;7.00;;;;;11.59;56.77;102022.31;5075289;28;46580;-64
2022/02/22 02:34:56;;;;;;;;;8.50;6.00;;;;;11.56;56.72;102022.38;5078793;27;45677;-64
2022/02/22 02:37:21;;;;;;;;;12.00;5.50;;;;;11.47;56.67;102013.59;5067100;27;45469;-65
2022/02/22 02:39:47;;;;;;;;;9.75;5.25;;;;;11.49;56.65;102019.81;5059485;28;45342;-65
2022/02/22 02:42:16;;;;;;;;;6.25;5.75;;;;;11.49;56.68;102013.56;5062065;28;45483;-64
2022/02/22 02:44:43;;;;;;;;;9.50;6.00;;;;;11.47;56.88;102002.00;5069310;27;45659;-64
2022/02/22 02:47:08;;;;;;;;;10.50;7.25;;;;;11.48;56.61;102014.50;5071610;27;45489;-64
2022/02/22 02:49:33;;;;;;;;;7.75;5.50;;;;;11.35;56.80;101997.75;5064381;28;45207;-65
2022/02/22 02:51:59;;;;;;;;;12.00;5.50;;;;;11.29;57.13;102009.44;5066269;28;46561;-65
2022/02/22 02:54:24;;;;;;;;;10.75;5.50;;;;;11.31;57.00;102025.44;5070634;28;45539;-64
2022/02/22 02:56:49;;;;;;;;;8.75;5.00;;;;;11.32;56.99;102036.09;5076609;27;45488;-65
2022/02/22 02:59:15;;;;;;;;;3.25;2.00;;;;;11.37;57.01;102049.41;5076630;27;45538;-64
2022/02/22 03:01:42;;;;;;;;;11.00;6.75;;;;;11.27;56.74;102035.28;5077009;27;46082;-64
2022/02/22 03:04:08;;;;;;;;;10.75;6.50;;;;;11.29;57.03;102049.53;5087110;27;45506;-65
2022/02/22 03:06:33;;;;;;;;;6.75;4.75;;;;;11.30;56.96;102050.41;5077676;27;45524;-65
2022/02/22 03:08:59;;;;;;;;;9.50;5.25;;;;;11.31;57.07;102065.53;5070618;27;45616;-64
2022/02/22 03:11:25;;;;;;;;;13.75;6.00;;;;;11.26;57.06;102056.69;5070051;28;45321;-64
2022/02/22 03:13:50;;;;;;;;;12.50;8.25;;;;;11.24;57.25;102047.81;5073225;27;45511;-64
2022/02/22 03:16:15;;;;;;;;;9.25;4.25;;;;;11.28;56.96;102044.19;5074848;27;45275;-65
2022/02/22 03:18:42;;;;;;;;;6.50;5.00;;;;;11.26;57.25;102035.28;5070431;27;45219;-64
2022/02/22 03:21:08;;;;;;;;;10.00;6.75;;;;;11.21;57.52;102034.47;5069404;28;45298;-64
2022/02/22 03:23:34;;;;;;;;;6.00;5.75;;;;;11.23;57.11;102041.59;5075833;27;45648;-65
2022/02/22 03:25:59;;;;;;;;;7.25;4.50;;;;;11.13;57.54;102034.59;5072428;27;45212;-65
2022/02/22 03:28:26;;;;;;;;;8.75;4.00;;;;;11.21;57.25;102047.84;5068987;27;45405;-65
2022/02/22 03:30:52;;;;;;;;;13.25;5.50;;;;;11.15;57.13;102043.47;5076534;28;46120;-64
2022/02/22 03:33:18;;;;;;;;;13.75;5.25;;;;;11.19;57.76;102044.31;5069529;27;45489;-64
2022/02/22 03:35:43;;;;;;;;;8.25;5.25;;;;;11.11;57.69;102047.13;5072542;27;45429;-65
2022/02/22 03:38:09;;;;;;;;;9.75;5.75;;;;;11.13;57.48;102048.84;5076334;27;46118;-64
2022/02/22 03:40:35;;;;;;;;;10.25;4.75;;;;;11.14;57.62;102047.03;5072534;27;46262;-64
2022/02/22 03:43:00;;;;;;;;;13.25;6.00;;;;;11.15;57.50;102048.81;5070715;28;45346;-64
2022/02/22 03:45:26;;;;;;;;;10.50;9.75;;;;;11.15;57.40;102045.28;5077054;27;45574;-65
2022/02/22 03:47:52;;;;;;;;;5.50;5.00;;;;;11.15;57.42;102039.94;5070800;27;45272;-64
2022/02/22 03:50:18;;;;;;;;;11.00;10.25;;;;;11.12;57.92;102028.34;5076278;28;46436;-65
2022/02/22 03:52:44;;;;;;;;;10.25;6.75;;;;;11.12;57.45;102032.81;5081058;28;45333;-65
2022/02/22 03:55:11;;;;;;;;;15.00;9.00;;;;;11.09;57.92;102035.53;5091640;27;45512;-64
2022/02/22 03:57:37;;;;;;;;;9.00;6.00;;;;;11.13;57.44;102046.16;5061805;28;45614;-64
2022/02/22 04:00:13;;;;;;;;;10.25;5.00;;;;;11.12;58.19;102044.38;5077793;28;45383;-64
2022/02/22 04:02:39;;;;;;;;;10.25;6.00;;;;;11.11;57.93;102047.13;5068776;28;45357;-64
2022/02/22 04:05:05;;;;;;;;;9.75;5.75;;;;;11.10;58.25;102048.00;5077393;27;45377;-64
2022/02/22 04:07:32;;;;;;;;;8.25;6.00;;;;;11.09;57.61;102038.22;5072876;27;45515;-65
2022/02/22 04:09:57;;;;;;;;;10.50;7.25;;;;;11.11;58.13;102039.97;5080965;28;46382;-64
2022/02/22 04:12:22;;;;;;;;;7.50;5.50;;;;;11.10;57.86;102034.66;5073438;27;45246;-64
2022/02/22 04:14:48;;;;;;;;;14.00;5.75;;;;;11.13;57.73;102040.81;5086155;27;45315;-64
2022/02/22 04:17:13;;;;;;;;;8.00;6.00;;;;;11.09;57.86;102027.53;5061500;28;45378;-64
2022/02/22 04:19:38;;;;;;;;;9.00;5.75;;;;;11.07;58.23;102029.34;5061391;28;46036;-65
2022/02/22 04:22:04;;;;;;;;;13.75;6.25;;;;;10.93;57.88;102005.50;5071916;28;45364;-64
2022/02/22 04:24:29;;;;;;;;;10.00;7.25;;;;;11.03;58.23;102025.84;5080096;27;45484;-65
2022/02/22 04:26:56;;;;;;;;;8.75;4.50;;;;;11.08;57.72;102041.81;5074618;27;45447;-64
2022/02/22 04:29:22;;;;;;;;;9.00;5.00;;;;;11.10;58.17;102048.00;5081024;27;47278;-64
2022/02/22 04:31:47;;;;;;;;;4.00;3.00;;;;;11.09;57.88;102057.81;5070528;27;45621;-64
2022/02/22 04:34:12;;;;;;;;;12.00;7.25;;;;;11.09;57.74;102064.94;5077617;27;45357;-64
2022/02/22 04:36:38;;;;;;;;;12.00;6.00;;;;;11.05;57.82;102056.06;5061324;28;45361;-65
2022/02/22 04:39:05;;;;;;;;;5.00;4.50;;;;;11.00;58.10;102049.91;5061030;28;46006;-64
2022/02/22 04:41:31;;;;;;;;;5.25;4.25;;;;;11.01;58.21;102059.72;5070612;28;45482;-64
2022/02/22 04:43:57;;;;;;;;;10.00;9.75;;;;;11.03;58.31;102062.38;5081543;27;45383;-65
2022/02/22 04:46:22;;;;;;;;;4.50;4.50;;;;;11.01;57.94;102056.13;5081277;28;45265;-64
2022/02/22 04:48:48;;;;;;;;;4.25;3.75;;;;;11.07;58.11;102066.75;5075283;27;45351;-64
2022/02/22 04:51:13;;;;;;;;;11.75;5.50;;;;;11.02;58.30;102056.13;5069290;28;45341;-65
2022/02/22 04:53:39;;;;;;;;;11.75;7.25;;;;;11.02;58.38;102055.25;5073780;27;45311;-64
2022/02/22 04:56:04;;;;;;;;;10.25;5.75;;;;;11.06;58.36;102059.63;5073981;27;45591;-64
2022/02/22 04:58:30;;;;;;;;;8.75;6.50;;;;;11.07;57.82;102066.75;5071244;27;45689;-65
2022/02/22 05:00:55;;;;;;;;;9.00;3.75;;;;;11.10;58.23;102072.94;5070209;27;45437;-64
2022/02/22 05:03:21;;;;;;;;;10.25;6.00;;;;;11.09;58.19;102067.59;5079497;28;45483;-65
2022/02/22 05:05:48;;;;;;;;;12.50;6.75;;;;;11.09;58.09;102064.94;5081526;27;45261;-65
2022/02/22 05:08:14;;;;;;;;;11.00;4.25;;;;;11.11;58.40;102080.06;5076770;28;45375;-64
2022/02/22 05:10:40;;;;;;;;;11.50;9.50;;;;;11.06;58.27;102070.31;5077391;27;45279;-64
2022/02/22 05:13:05;;;;;;;;;7.25;6.00;;;;;11.10;57.96;102072.06;5076241;28;45462;-64
2022/02/22 05:15:32;;;;;;;;;9.50;6.50;;;;;11.11;57.95;102077.38;5080139;27;45434;-64
2022/02/22 05:17:58;;;;;;;;;11.00;7.00;;;;;11.08;57.79;102072.06;5078783;27;46072;-64
2022/02/22 05:20:23;;;;;;;;;9.75;4.25;;;;;11.03;57.65;102049.00;5079545;27;45290;-64
2022/02/22 05:22:49;;;;;;;;;6.25;4.50;;;;;11.09;58.05;102068.50;5075868;28;45298;-64
2022/02/22 05:25:15;;;;;;;;;12.00;6.75;;;;;11.12;58.01;102070.25;5081125;27;45384;-65
2022/02/22 05:27:41;;;;;;;;;6.50;5.75;;;;;11.15;57.63;102072.00;5079050;27;46326;-64
2022/02/22 05:30:08;;;;;;;;;9.50;6.00;;;;;11.13;57.71;102067.56;5077919;28;45326;-65
2022/02/22 05:32:34;;;;;;;;;16.50;6.25;;;;;11.13;57.96;102064.00;5064807;27;45324;-65
2022/02/22 05:35:01;;;;;;;;;10.00;6.00;;;;;11.08;58.08;102056.03;5070112;27;45438;-65
2022/02/22 05:37:27;;;;;;;;;8.75;5.00;;;;;11.11;58.07;102063.16;5078498;28;47119;-65
2022/02/22 05:39:54;;;;;;;;;8.50;4.25;;;;;11.07;58.21;102051.59;5079087;28;45287;-64
2022/02/22 05:42:20;;;;;;;;;6.00;6.00;;;;;11.11;57.92;102061.34;5066976;27;45416;-65
2022/02/22 05:44:45;;;;;;;;;13.00;6.00;;;;;11.11;58.14;102069.38;5073824;28;45251;-64
2022/02/22 05:47:11;;;;;;;;;11.00;9.00;;;;;11.11;57.96;102074.72;5077883;27;45365;-65
2022/02/22 05:49:36;;;;;;;;;8.75;6.00;;;;;11.13;57.53;102083.59;5065108;27;45339;-65
2022/02/22 05:52:01;;;;;;;;;13.50;9.00;;;;;11.16;57.58;102065.72;5067350;28;45469;-64
2022/02/22 05:54:27;;;;;;;;;8.25;7.50;;;;;11.04;57.28;102062.34;5101594;27;46004;-65
2022/02/22 05:56:52;;;;;;;;;15.00;9.25;;;;;11.06;58.11;102063.22;5066177;27;45313;-65
2022/02/22 05:59:17;;;;;;;;;13.50;7.75;;;;;11.01;57.69;102057.03;5060000;28;45315;-65
2022/02/22 06:01:43;;;;;;;;;12.75;10.00;;;;;11.05;58.12;102058.75;5063288;28;45362;-65
2022/02/22 06:04:12;;;;;;;;;16.25;12.25;;;;;10.99;58.28;102042.78;5083826;27;45634;-65
2022/02/22 06:06:40;;;;;;;;;14.25;7.25;;;;;10.98;57.64;102041.03;5071756;27;46150;-65
2022/02/22 06:09:07;;;;;;;;;8.75;6.00;;;;;10.99;57.97;102057.94;5069720;28;46330;-64
2022/02/22 06:11:33;;;;;;;;;13.75;8.00;;;;;10.98;58.00;102048.19;5072380;27;45372;-64
2022/02/22 06:13:59;;;;;;;;;8.50;6.25;;;;;10.89;58.15;102026.03;5071559;27;45427;-64
2022/02/22 06:16:25;;;;;;;;;13.00;6.75;;;;;10.97;58.04;102041.94;5068211;27;46072;-64
2022/02/22 06:18:51;;;;;;;;;9.00;6.00;;;;;10.97;57.90;102038.41;5064110;28;45446;-65
2022/02/22 06:21:16;;;;;;;;;10.75;5.75;;;;;10.94;57.79;102036.63;5067902;28;45247;-65
2022/02/22 06:23:42;;;;;;;;;9.25;6.50;;;;;10.92;58.13;102044.66;5074948;28;45251;-64
2022/02/22 06:26:08;;;;;;;;;11.25;10.00;;;;;10.94;57.88;102052.66;5066129;27;45309;-65
2022/02/22 06:28:33;;;;;;;;;10.75;8.25;;;;;10.89;58.20;102051.84;5064454;27;45479;-65
2022/02/22 06:30:59;;;;;;;;;10.25;6.75;;;;;10.92;58.33;102057.16;5067970;28;45483;-65
2022/02/22 06:33:25;;;;;;;;;8.00;5.00;;;;;10.90;58.17;102048.28;5071802;27;45639;-65
2022/02/22 06:35:50;;;;;;;;;13.00;9.00;;;;;10.83;58.14;102039.44;5071006;28;45619;-64
2022/02/22 06:38:15;;;;;;;;;9.00;7.50;;;;;10.84;57.76;102048.34;5071568;28;45259;-64
2022/02/22 06:40:41;;;;;;;;;9.00;5.75;;;;;10.75;57.92;102044.88;5073243;27;45372;-65
2022/02/22 06:43:06;;;;;;;;;4.75;3.75;;;;;10.83;58.08;102051.94;5079867;28;45235;-65
2022/02/22 06:45:32;;;;;;;;;6.00;6.00;;;;;10.84;58.27;102051.91;5080533;27;45511;-65
2022/02/22 06:47:57;;;;;;;;;6.00;6.00;;;;;10.85;58.49;102066.16;5080979;27;45400;-64
2022/02/22 06:50:24;;;;;;;;;15.50;10.25;;;;;10.84;57.95;102069.72;5077383;27;45452;-64
2022/02/22 06:52:51;;;;;;;;;5.50;5.50;;;;;10.74;58.23;102052.91;5070525;28;45223;-65
2022/02/22 06:55:16;;;;;;;;;10.50;7.50;;;;;10.83;58.16;102065.28;5066268;28;45487;-65
2022/02/22 06:57:42;;;;;;;;;5.50;5.00;;;;;10.85;58.08;102066.16;5076931;27;45333;-65
2022/02/22 07:00:12;;;;;;;;;16.50;9.50;;;;;10.81;58.42;102062.63;5062356;28;45429;-65
2022/02/22 07:02:39;;;;;;;;;8.75;5.00;;;;;10.79;57.94;102067.09;5073355;27;45456;-65
2022/02/22 07:05:10;;;;;;;;;11.75;6.50;;;;;10.79;58.56;102076.91;5085700;27;47808;-69
2022/02/22 07:07:36;;;;;;;;;13.50;6.50;;;;;10.80;58.66;102092.91;5064914;27;45337;-69
2022/02/22 07:10:02;;;;;;;;;6.00;5.75;;;;;10.79;58.22;102084.91;5066116;28;45373;-69
2022/02/22 07:12:28;;;;;;;;;7.50;6.25;;;;;10.71;58.48;102072.53;5068705;27;45400;-69
2022/02/22 07:14:53;;;;;;;;;8.75;6.00;;;;;10.74;58.53;102077.84;5081398;27;45512;-69
2022/02/22 07:17:19;;;;;;;;;6.75;5.75;;;;;10.68;58.47;102058.34;5080365;27;45358;-69
2022/02/22 07:19:45;;;;;;;;;11.75;4.50;;;;;10.70;58.79;102081.44;5081466;27;45289;-69
2022/02/22 07:22:10;;;;;;;;;11.00;6.00;;;;;10.65;58.37;102069.94;5082724;27;45231;-68
2022/02/22 07:24:36;;;;;;;;;8.00;6.00;;;;;10.67;58.20;102080.59;5082045;27;46287;-69
2022/02/22 07:27:01;;;;;;;;;7.25;3.50;;;;;10.65;58.31;102069.94;5080462;27;45452;-69
2022/02/22 07:29:28;;;;;;;;;11.50;6.00;;;;;10.63;58.26;102069.06;5074462;27;45457;-68
2022/02/22 07:31:54;;;;;;;;;9.50;6.50;;;;;10.56;58.41;102062.03;5072445;27;46444;-68
2022/02/22 07:34:19;;;;;;;;;14.00;9.00;;;;;10.51;58.94;102045.19;5078721;27;46057;-68
2022/02/22 07:36:45;;;;;;;;;13.00;8.75;;;;;10.57;58.93;102055.78;5075264;27;45296;-68
2022/02/22 07:39:10;;;;;;;;;12.25;6.00;;;;;10.62;58.93;102077.09;5071625;27;45310;-68
2022/02/22 07:41:36;;;;;;;;;8.75;5.00;;;;;10.63;58.79;102079.75;5073478;27;45373;-68
2022/02/22 07:44:01;;;;;;;;;11.00;5.00;;;;;10.64;58.88;102076.19;5073071;28;45984;-68
2022/02/22 07:46:26;;;;;;;;;11.25;7.00;;;;;10.61;58.81;102065.53;5067031;28;45433;-68
2022/02/22 07:48:52;;;;;;;;;12.75;8.25;;;;;10.69;58.59;102073.44;5075155;28;45287;-69
2022/02/22 07:51:18;;;;;;;;;7.50;6.00;;;;;10.67;58.53;102065.44;5071204;27;45466;-68
2022/02/22 07:53:44;;;;;;;;;8.75;5.25;;;;;10.75;58.94;102071.59;5064711;28;45387;-68
2022/02/22 07:56:10;;;;;;;;;17.00;9.50;;;;;10.74;58.51;102067.16;5073983;28;45228;-65
2022/02/22 07:58:36;;;;;;;;;6.00;5.75;;;;;10.76;58.83;102067.16;5069134;28;45449;-65
2022/02/22 08:01:02;;;;;;;;;17.25;10.00;;;;;10.77;58.75;102070.69;5062547;28;45532;-66
2022/02/22 08:03:28;;;;;;;;;9.75;4.75;;;;;10.68;58.48;102064.56;5063264;27;46756;-66
2022/02/22 08:05:53;;;;;;;;;9.25;7.75;;;;;10.77;59.31;102068.03;5070219;28;45586;-66
2022/02/22 08:08:18;;;;;;;;;13.50;5.75;;;;;10.71;59.13;102055.66;5076001;27;45209;-65
2022/02/22 08:10:44;;;;;;;;;10.00;6.00;;;;;10.79;59.39;102071.56;5060670;28;45219;-65
2022/02/22 08:13:11;;;;;;;;;14.75;9.50;;;;;10.80;59.22;102071.53;5063804;27;45498;-65
2022/02/22 08:15:36;;;;;;;;;12.25;6.00;;;;;10.83;59.20;102068.84;5077478;28;45596;-65
2022/02/22 08:18:01;;;;;;;;;10.75;6.25;;;;;10.79;59.53;102051.06;5070721;27;45439;-65
2022/02/22 08:20:27;;;;;;;;;9.50;6.00;;;;;10.84;59.07;102046.56;5070610;27;45495;-65
2022/02/22 08:22:53;;;;;;;;;12.50;7.50;;;;;10.89;59.24;102062.53;5087805;27;46207;-65
2022/02/22 08:25:19;;;;;;;;;9.75;6.25;;;;;10.84;59.45;102043.91;5071185;28;45447;-66
2022/02/22 08:27:44;;;;;;;;;7.00;5.75;;;;;10.85;59.84;102053.66;5076157;27;45392;-65
2022/02/22 08:30:11;;;;;;;;;11.25;7.25;;;;;10.85;59.74;102056.34;5075370;27;45808;-66
2022/02/22 08:32:36;;;;;;;;;11.50;7.00;;;;;10.81;59.83;102043.94;5065220;28;46957;-66
2022/02/22 08:35:02;;;;;;;;;9.75;6.00;;;;;10.85;59.83;102051.00;5071657;27;45222;-66
2022/02/22 08:37:27;;;;;;;;;10.50;5.50;;;;;10.92;59.78;102063.34;5076254;27;45433;-65
2022/02/22 08:39:52;;;;;;;;;10.50;6.75;;;;;10.85;59.68;102051.00;5077708;27;45170;-65
2022/02/22 08:42:18;;;;;;;;;10.25;6.50;;;;;10.86;59.93;102043.84;5070003;28;45392;-65
2022/02/22 08:44:43;;;;;;;;;8.75;7.00;;;;;10.94;59.76;102050.91;5066223;27;45380;-66
2022/02/22 08:47:08;;;;;;;;;10.75;9.00;;;;;10.97;60.20;102049.94;5062360;28;45408;-66
2022/02/22 08:49:34;;;;;;;;;11.25;7.75;;;;;10.98;59.83;102049.06;5060890;28;45599;-65
2022/02/22 08:51:59;;;;;;;;;10.25;6.50;;;;;10.92;60.10;102035.78;5060556;28;45312;-65
2022/02/22 08:54:24;;;;;;;;;12.00;10.75;;;;;10.93;60.61;102025.06;5067849;28;45400;-66
2022/02/22 08:56:50;;;;;;;;;15.00;6.00;;;;;10.90;60.49;102025.09;5080890;27;45396;-65
2022/02/22 08:59:15;;;;;;;;;12.75;8.50;;;;;10.99;60.23;102023.22;5079574;28;45297;-65
2022/02/22 09:01:41;;;;;;;;;10.50;8.00;;;;;10.93;60.83;102025.06;5068034;27;46006;-66
2022/02/22 09:04:06;;;;;;;;;9.75;5.50;;;;;10.89;60.78;102026.03;5062859;28;46704;-65
2022/02/22 09:06:31;;;;;;;;;10.75;5.25;;;;;10.97;60.54;102039.25;5075001;28;45409;-66
2022/02/22 09:08:57;;;;;;;;;13.00;8.50;;;;;10.99;60.69;102029.44;5091836;27;45515;-65
2022/02/22 09:11:22;;;;;;;;;16.50;9.00;;;;;11.04;60.40;102035.63;5068218;27;45424;-65
2022/02/22 09:13:47;;;;;;;;;7.50;6.00;;;;;11.06;61.24;102022.22;5077229;27;45290;-66
2022/02/22 09:16:14;;;;;;;;;12.00;6.50;;;;;11.00;61.31;102003.63;5080005;27;45405;-65
2022/02/22 09:18:39;;;;;;;;;10.00;6.25;;;;;11.10;61.70;102013.28;5066258;27;47252;-66
2022/02/22 09:21:04;;;;;;;;;4.50;4.00;;;;;11.17;61.54;102025.63;5067382;28;45379;-66
2022/02/22 09:23:30;;;;;;;;;11.75;6.50;;;;;11.15;61.98;102016.75;5068410;28;45653;-66
2022/02/22 09:25:55;;;;;;;;;13.00;9.25;;;;;11.14;61.90;102020.31;5070294;28;45317;-65
2022/02/22 09:28:21;;;;;;;;;7.25;5.00;;;;;11.08;61.98;102007.94;5072168;27;45660;-65
2022/02/22 09:30:46;;;;;;;;;9.50;8.50;;;;;11.05;61.84;102010.66;5079552;27;45450;-66
2022/02/22 09:33:12;;;;;;;;;6.00;5.25;;;;;11.12;61.94;102023.00;5070522;27;45435;-65
2022/02/22 09:35:37;;;;;;;;;11.25;6.25;;;;;11.12;61.85;102022.13;5071242;27;45342;-66
2022/02/22 09:38:03;;;;;;;;;9.00;5.50;;;;;11.14;62.34;102025.66;5075512;27;45659;-66
2022/02/22 09:40:30;;;;;;;;;7.25;5.25;;;;;11.11;62.12;102012.38;5071381;28;45995;-65
2022/02/22 09:42:55;;;;;;;;;10.75;5.00;;;;;11.17;62.06;102006.03;5072922;27;45369;-65
2022/02/22 09:45:22;;;;;;;;;4.75;4.75;;;;;11.17;62.44;102019.41;5066399;27;45376;-65
2022/02/22 09:47:48;;;;;;;;;3.75;2.00;;;;;11.22;62.44;102014.88;5067045;27;45379;-65
2022/02/22 09:50:14;;;;;;;;;7.25;5.00;;;;;11.13;62.29;101989.19;5070699;28;45426;-66
2022/02/22 09:52:40;;;;;;;;;10.25;3.50;;;;;11.22;62.82;101996.16;5068397;27;45405;-66
2022/02/22 09:55:07;;;;;;;;;9.50;3.75;;;;;11.21;62.35;101992.63;5070181;28;45341;-65
2022/02/22 09:57:33;;;;;;;;;6.50;4.00;;;;;11.29;62.54;101989.81;5068941;27;46192;-65
2022/02/22 09:59:58;;;;;;;;;3.50;3.50;;;;;11.31;62.51;101980.00;5070784;27;45961;-65
2022/02/22 10:02:37;;;;;;;;;7.75;6.25;;;;;11.34;62.63;101963.00;5067577;27;45331;-66
2022/02/22 10:05:23;;;;;;;;;5.50;3.75;;;;;11.36;62.80;101959.44;5059756;28;45610;-66
2022/02/22 10:07:52;;;;;;;;;6.00;4.75;;;;;11.44;62.93;101964.63;5062682;27;45375;-65
2022/02/22 10:10:20;;;;;;;;;7.75;5.50;;;;;11.43;62.86;101963.75;5069033;27;45652;-66
2022/02/22 10:12:53;;;;;;;;;4.75;3.25;;;;;11.36;62.92;101927.34;5064163;27;45862;-66
2022/02/22 10:15:19;;;;;;;;;6.50;4.50;;;;;11.42;62.66;101953.09;5065141;28;45243;-65
2022/02/22 10:17:49;;;;;;;;;7.00;7.00;;;;;11.39;62.68;101940.63;5078102;27;45302;-65
2022/02/22 10:20:14;;;;;;;;;3.50;3.50;;;;;11.57;62.99;101957.28;5065967;27;45717;-66
2022/02/22 10:23:06;;;;;;;;;6.50;4.50;;;;;11.62;62.79;101958.09;5079836;27;45381;-65
2022/02/22 10:25:33;;;;;;;;;6.50;4.00;;;;;11.64;63.11;101965.19;5067487;27;46646;-65
2022/02/22 10:28:00;;;;;;;;;5.00;4.50;;;;;11.55;62.95;101953.78;5064134;28;45371;-65
2022/02/22 10:30:29;;;;;;;;;9.00;4.25;;;;;11.68;63.10;101966.03;5062978;27;46242;-65
2022/02/22 10:32:55;;;;;;;;;9.75;4.00;;;;;11.71;63.17;101970.41;5063519;28;45175;-66
2022/02/22 10:35:50;;;;;;;;;6.25;3.25;;;;;11.74;63.11;101991.78;5064289;28;45421;-65
2022/02/22 10:38:26;;;;;;;;;5.25;5.00;;;;;11.75;62.81;101994.41;5069759;28;45832;-66
2022/02/22 10:40:55;;;;;;;;;5.00;3.25;;;;;11.76;63.12;101989.94;5058555;28;46164;-65
2022/02/22 10:43:22;;;;;;;;;4.00;3.50;;;;;11.79;63.15;102000.59;5066349;28;45428;-65
2022/02/22 10:45:53;;;;;;;;;7.75;4.75;;;;;11.82;63.58;102009.44;5071192;27;45359;-65
2022/02/22 10:48:30;;;;;;;;;6.75;4.00;;;;;11.81;63.36;102005.03;5079088;27;45420;-65
2022/02/22 10:50:57;;;;;;;;;5.75;4.75;;;;;11.81;63.19;102007.69;5078377;27;46190;-65
2022/02/22 10:53:29;;;;;;;;;5.00;4.00;;;;;11.91;63.35;101999.50;5074231;27;45290;-65
2022/02/22 10:55:55;;;;;;;;;5.25;5.00;;;;;11.91;63.25;101992.41;5071046;28;46505;-65
2022/02/22 10:58:22;;;;;;;;;5.75;5.00;;;;;11.92;63.29;101994.16;5070150;27;45537;-65
2022/02/22 11:00:47;;;;;;;;;6.50;4.00;;;;;11.89;63.60;101978.13;5078661;28;46646;-66
2022/02/22 11:03:13;;;;;;;;;6.00;4.75;;;;;11.87;63.79;101975.47;5078000;28;45258;-65
2022/02/22 11:05:38;;;;;;;;;5.25;4.00;;;;;11.97;64.22;101996.75;5079155;27;45535;-66
2022/02/22 11:08:04;;;;;;;;;4.00;4.00;;;;;11.96;63.99;101979.81;5067189;27;45322;-66
2022/02/22 11:10:31;;;;;;;;;2.50;2.25;;;;;11.98;63.90;101986.03;5070594;28;45414;-66
2022/02/22 11:13:01;;;;;;;;;5.25;3.50;;;;;12.05;64.18;101997.50;5075820;27;45388;-66
2022/02/22 11:15:37;;;;;;;;;4.25;3.75;;;;;12.03;64.38;101978.78;5070891;28;45526;-66
2022/02/22 11:18:17;;;;;;;;;6.00;3.00;;;;;12.11;64.11;101984.00;5077481;27;45492;-66